Reynoldsville, Pennsylvania
Current Conditions -  °F | °C
As of 8:53 AM on Wednesday 22 Oct 2014 (Local Time) from KDUJ Reporting Station
Overcast Overcast  
Wind Chill:   Ceiling: 700
Heat Index:   Visibility: 10mi
Dew Point:   Wind: 9mph
Humidity: 93%   Direction: 10°N
Pressure: 30.09"   Gusts: NA
Location:  41.1°N, 78.89°W
Report Text: KDUJ 221253Z AUTO 01008KT 10SM OVC007 07/06 A3009 RMK AO2 SLP196 T00670056
Loading
Personal Weather Stations






























Interactive Weather Map
Tropical Storm Tracking
New forecast layout! Learn more

10-Day Weather Forecast

Advertisements
Track Severe Weather on mobile